Time;durP1;ratioP1;P1;durP2;ratioP2;P2;SDS_P1;SDS_P2;PMS_P1;PMS_P2;Temp;Humidity;BMP_temperature;BMP_pressure;BME280_temperature;BME280_humidity;BME280_pressure;Samples;Min_cycle;Max_cycle;Signal;HPM_P1;HPM_P2
2022/09/02 00:01:36;;;;;;;;;;;;;;;;;;4990931;28;20306;-76
2022/09/02 00:04:02;;;;;;;;;;;;;;;;;;4975567;28;20000;-76
2022/09/02 00:06:27;;;;;;;;;;;;;;;;;;4994735;28;20004;-77
2022/09/02 00:08:53;;;;;;;;;;;;;;;;;;4977719;28;19910;-76
2022/09/02 00:11:18;;;;;;;;;;;;;;;;;;4978038;28;19921;-76
2022/09/02 00:13:43;;;;;;;;;;;;;;;;;;4976007;28;19921;-77
2022/09/02 00:16:10;;;;;;;;;;;;;;;;;;4991089;28;19921;-77
2022/09/02 00:18:35;;;;;;;;;;;;;;;;;;4990912;28;19941;-77
2022/09/02 00:21:01;;;;;;;;;;;;;;;;;;4990561;28;19914;-76
2022/09/02 00:23:26;;;;;;;;;;;;;;;;;;4985506;28;19914;-76
2022/09/02 00:25:51;;;;;;;;;;;;;;;;;;4993791;28;19933;-76
2022/09/02 00:28:17;;;;;;;;;;;;;;;;;;4993627;28;19959;-76
2022/09/02 00:30:42;;;;;;;;;;;;;;;;;;4977635;28;20374;-77
2022/09/02 00:33:08;;;;;;;;;;;;;;;;;;4977098;28;19934;-77
2022/09/02 00:35:33;;;;;;;;;;;;;;;;;;4993865;28;19921;-76
2022/09/02 00:37:58;;;;;;;;;;;;;;;;;;4993066;28;19921;-77
2022/09/02 00:40:24;;;;;;;;;;;;;;;;;;4976105;28;19914;-77
2022/09/02 00:42:49;;;;;;;;;;;;;;;;;;4974904;28;19925;-78
2022/09/02 00:45:14;;;;;;;;;;;;;;;;;;4974129;28;19910;-77
2022/09/02 00:47:40;;;;;;;;;;;;;;;;;;4974967;28;19961;-77
2022/09/02 00:50:05;;;;;;;;;;;;;;;;;;4975415;28;20013;-78
2022/09/02 00:52:30;;;;;;;;;;;;;;;;;;4974864;28;19964;-77
2022/09/02 00:54:56;;;;;;;;;;;;;;;;;;4973627;28;20416;-76
2022/09/02 00:57:22;;;;;;;;;;;;;;;;;;4993474;28;19914;-77
2022/09/02 00:59:47;;;;;;;;;;;;;;;;;;4974959;28;20393;-77
2022/09/02 01:02:13;;;;;;;;;;;;;;;;;;4975045;28;20401;-76
2022/09/02 01:04:38;;;;;;;;;;;;;;;;;;4989770;28;19929;-75
2022/09/02 01:07:04;;;;;;;;;;;;;;;;;;4989844;28;19914;-77
2022/09/02 01:09:32;;;;;;;;;;;;;;;;;;4974732;28;19961;-77
2022/09/02 01:11:57;;;;;;;;;;;;;;;;;;4977344;28;19967;-78
2022/09/02 01:14:23;;;;;;;;;;;;;;;;;;4974369;28;19957;-76
2022/09/02 01:16:48;;;;;;;;;;;;;;;;;;4974929;28;19914;-75
2022/09/02 01:19:13;;;;;;;;;;;;;;;;;;4974482;28;19914;-77
2022/09/02 01:21:39;;;;;;;;;;;;;;;;;;4974459;28;19968;-77
2022/09/02 01:24:04;;;;;;;;;;;;;;;;;;4973215;28;19911;-77
2022/09/02 01:26:30;;;;;;;;;;;;;;;;;;4973310;28;19918;-77
2022/09/02 01:28:55;;;;;;;;;;;;;;;;;;4989120;28;19954;-77
2022/09/02 01:31:21;;;;;;;;;;;;;;;;;;4976464;28;19914;-77
2022/09/02 01:33:46;;;;;;;;;;;;;;;;;;4973890;28;20409;-77
2022/09/02 01:36:12;;;;;;;;;;;;;;;;;;4974024;28;19918;-76
2022/09/02 01:38:38;;;;;;;;;;;;;;;;;;4973226;28;19910;-77
2022/09/02 01:41:05;;;;;;;;;;;;;;;;;;4973118;28;19914;-79
2022/09/02 01:43:30;;;;;;;;;;;;;;;;;;4972734;28;20465;-77
2022/09/02 01:45:55;;;;;;;;;;;;;;;;;;4973805;28;19919;-77
2022/09/02 01:48:23;;;;;;;;;;;;;;;;;;4970480;28;20378;-77
2022/09/02 01:50:50;;;;;;;;;;;;;;;;;;4941001;28;20364;-76
2022/09/02 01:53:15;;;;;;;;;;;;;;;;;;4972812;28;19938;-76
2022/09/02 01:55:40;;;;;;;;;;;;;;;;;;4940715;28;19914;-76
2022/09/02 01:58:06;;;;;;;;;;;;;;;;;;4973329;28;19982;-76
2022/09/02 02:00:31;;;;;;;;;;;;;;;;;;4974474;28;19914;-75
2022/09/02 02:02:57;;;;;;;;;;;;;;;;;;4972453;28;19918;-76
2022/09/02 02:05:24;;;;;;;;;;;;;;;;;;4985941;28;19957;-78
2022/09/02 02:07:51;;;;;;;;;;;;;;;;;;4991869;28;19921;-76
2022/09/02 02:10:16;;;;;;;;;;;;;;;;;;4993172;28;19913;-76
2022/09/02 02:12:42;;;;;;;;;;;;;;;;;;4992839;28;19921;-77
2022/09/02 02:15:08;;;;;;;;;;;;;;;;;;4991709;28;19917;-76
2022/09/02 02:17:34;;;;;;;;;;;;;;;;;;4991712;28;19918;-75
2022/09/02 02:19:59;;;;;;;;;;;;;;;;;;4992156;28;20080;-75
2022/09/02 02:22:26;;;;;;;;;;;;;;;;;;4986980;28;19969;-76
2022/09/02 02:24:51;;;;;;;;;;;;;;;;;;4973364;28;20005;-77
2022/09/02 02:27:16;;;;;;;;;;;;;;;;;;4972394;28;20000;-75
2022/09/02 02:29:43;;;;;;;;;;;;;;;;;;4972536;28;19914;-75
2022/09/02 02:32:08;;;;;;;;;;;;;;;;;;4988634;28;20450;-75
2022/09/02 02:34:34;;;;;;;;;;;;;;;;;;4988583;28;19922;-77
2022/09/02 02:36:59;;;;;;;;;;;;;;;;;;4988497;28;20009;-75
2022/09/02 02:39:25;;;;;;;;;;;;;;;;;;4975712;28;19921;-76
2022/09/02 02:41:50;;;;;;;;;;;;;;;;;;4988636;28;19924;-74
2022/09/02 02:44:16;;;;;;;;;;;;;;;;;;4988262;28;19918;-75
2022/09/02 02:46:41;;;;;;;;;;;;;;;;;;4988434;28;19918;-76
2022/09/02 02:49:06;;;;;;;;;;;;;;;;;;4972203;28;19961;-77
2022/09/02 02:51:32;;;;;;;;;;;;;;;;;;4972913;28;20010;-77
2022/09/02 02:53:57;;;;;;;;;;;;;;;;;;4973112;28;20301;-76
2022/09/02 02:56:23;;;;;;;;;;;;;;;;;;4972110;28;20001;-77
2022/09/02 02:58:49;;;;;;;;;;;;;;;;;;4972184;28;19914;-77
2022/09/02 03:01:17;;;;;;;;;;;;;;;;;;4956388;28;19914;-76
2022/09/02 03:03:43;;;;;;;;;;;;;;;;;;4955642;28;19921;-77
2022/09/02 03:06:09;;;;;;;;;;;;;;;;;;4956380;28;20427;-78
2022/09/02 03:08:35;;;;;;;;;;;;;;;;;;4975245;28;19914;-77
2022/09/02 03:11:01;;;;;;;;;;;;;;;;;;4956135;28;20008;-77
2022/09/02 03:13:28;;;;;;;;;;;;;;;;;;4986090;28;20012;-78
2022/09/02 03:15:54;;;;;;;;;;;;;;;;;;4975211;28;19961;-77
2022/09/02 03:18:20;;;;;;;;;;;;;;;;;;4991249;28;19941;-76
2022/09/02 03:20:47;;;;;;;;;;;;;;;;;;4975889;28;20369;-76
2022/09/02 03:23:13;;;;;;;;;;;;;;;;;;4995576;28;19960;-77
2022/09/02 03:25:42;;;;;;;;;;;;;;;;;;4994576;28;19914;-75
2022/09/02 03:28:14;;;;;;;;;;;;;;;;;;4990517;28;19918;-76
2022/09/02 03:30:40;;;;;;;;;;;;;;;;;;4966579;28;19914;-77
2022/09/02 03:33:05;;;;;;;;;;;;;;;;;;4976135;28;20005;-75
2022/09/02 03:35:31;;;;;;;;;;;;;;;;;;4976183;28;20125;-77
2022/09/02 03:37:57;;;;;;;;;;;;;;;;;;4976361;28;20434;-77
2022/09/02 03:40:23;;;;;;;;;;;;;;;;;;4991162;28;19914;-76
2022/09/02 03:42:51;;;;;;;;;;;;;;;;;;4990982;28;19918;-76
2022/09/02 03:45:16;;;;;;;;;;;;;;;;;;4974735;28;19925;-77
2022/09/02 03:47:49;;;;;;;;;;;;;;;;;;4987196;28;19914;-77
2022/09/02 03:50:15;;;;;;;;;;;;;;;;;;4994395;28;19914;-76
2022/09/02 03:52:40;;;;;;;;;;;;;;;;;;4994050;28;20370;-77
2022/09/02 03:55:06;;;;;;;;;;;;;;;;;;4977706;28;19924;-77
2022/09/02 03:57:31;;;;;;;;;;;;;;;;;;4995227;28;19914;-77
2022/09/02 03:59:56;;;;;;;;;;;;;;;;;;4995409;28;19914;-77
2022/09/02 04:02:23;;;;;;;;;;;;;;;;;;4976038;28;19918;-76
2022/09/02 04:04:48;;;;;;;;;;;;;;;;;;4975886;28;19910;-76
2022/09/02 04:07:14;;;;;;;;;;;;;;;;;;4974478;28;19914;-76
2022/09/02 04:09:39;;;;;;;;;;;;;;;;;;4990829;28;20305;-76
2022/09/02 04:12:04;;;;;;;;;;;;;;;;;;4974540;28;19921;-77
2022/09/02 04:14:30;;;;;;;;;;;;;;;;;;4974058;28;19941;-77
2022/09/02 04:16:56;;;;;;;;;;;;;;;;;;4976622;28;20381;-77
2022/09/02 04:19:21;;;;;;;;;;;;;;;;;;4974231;28;19915;-77
2022/09/02 04:22:06;;;;;;;;;;;;;;;;;;4978034;28;20167;-76
2022/09/02 04:24:31;;;;;;;;;;;;;;;;;;4975187;28;19922;-76
2022/09/02 04:26:57;;;;;;;;;;;;;;;;;;4975181;28;19917;-77
2022/09/02 04:29:23;;;;;;;;;;;;;;;;;;4990079;28;20061;-75
2022/09/02 04:31:50;;;;;;;;;;;;;;;;;;4989799;28;19914;-77
2022/09/02 04:34:16;;;;;;;;;;;;;;;;;;4990022;28;20389;-77
2022/09/02 04:36:41;;;;;;;;;;;;;;;;;;4990073;28;19914;-76
2022/09/02 04:39:08;;;;;;;;;;;;;;;;;;4988750;28;20015;-76
2022/09/02 04:41:36;;;;;;;;;;;;;;;;;;4976983;28;19922;-76
2022/09/02 04:44:06;;;;;;;;;;;;;;;;;;4992928;28;20000;-77
2022/09/02 04:46:35;;;;;;;;;;;;;;;;;;4992850;28;19914;-77
2022/09/02 04:49:04;;;;;;;;;;;;;;;;;;4977209;28;19914;-77
2022/09/02 04:51:30;;;;;;;;;;;;;;;;;;4992992;28;19920;-75
2022/09/02 04:53:57;;;;;;;;;;;;;;;;;;4992510;28;19921;-77
2022/09/02 04:56:23;;;;;;;;;;;;;;;;;;4992733;28;19914;-78
2022/09/02 04:58:52;;;;;;;;;;;;;;;;;;4993670;28;19917;-77
2022/09/02 05:01:19;;;;;;;;;;;;;;;;;;4992654;28;19914;-77
2022/09/02 05:03:46;;;;;;;;;;;;;;;;;;4993477;28;20387;-77
2022/09/02 05:06:12;;;;;;;;;;;;;;;;;;4992414;28;19918;-77
2022/09/02 05:08:40;;;;;;;;;;;;;;;;;;4992282;28;19913;-77
2022/09/02 05:11:05;;;;;;;;;;;;;;;;;;4992266;28;20004;-77
2022/09/02 05:13:31;;;;;;;;;;;;;;;;;;4992043;28;20012;-77
2022/09/02 05:15:57;;;;;;;;;;;;;;;;;;4960086;28;19910;-76
2022/09/02 05:18:23;;;;;;;;;;;;;;;;;;4992515;28;19914;-76
2022/09/02 05:20:48;;;;;;;;;;;;;;;;;;4993753;28;19914;-77
2022/09/02 05:23:14;;;;;;;;;;;;;;;;;;4991651;28;20392;-77
2022/09/02 05:25:41;;;;;;;;;;;;;;;;;;4989438;28;19921;-78
2022/09/02 05:28:09;;;;;;;;;;;;;;;;;;4973918;28;19918;-78
2022/09/02 05:30:35;;;;;;;;;;;;;;;;;;4973618;28;20397;-76
2022/09/02 05:33:01;;;;;;;;;;;;;;;;;;4971913;28;19911;-76
2022/09/02 05:35:27;;;;;;;;;;;;;;;;;;4973705;28;20008;-76
2022/09/02 05:37:52;;;;;;;;;;;;;;;;;;4972444;28;19965;-77
2022/09/02 05:40:17;;;;;;;;;;;;;;;;;;4972611;28;20321;-75
2022/09/02 05:42:43;;;;;;;;;;;;;;;;;;4972096;28;19929;-77
2022/09/02 05:45:09;;;;;;;;;;;;;;;;;;4971777;28;19921;-77
2022/09/02 05:47:35;;;;;;;;;;;;;;;;;;4972346;28;19910;-77
2022/09/02 05:50:00;;;;;;;;;;;;;;;;;;4972163;28;19991;-76
2022/09/02 05:52:26;;;;;;;;;;;;;;;;;;4971951;28;20308;-76
2022/09/02 05:54:53;;;;;;;;;;;;;;;;;;4972504;28;19914;-76
2022/09/02 05:57:19;;;;;;;;;;;;;;;;;;4972960;28;19914;-76
2022/09/02 05:59:57;;;;;;;;;;;;;;;;;;4972132;28;19910;-76
2022/09/02 06:02:38;;;;;;;;;;;;;;;;;;4973741;28;19925;-77
2022/09/02 06:05:10;;;;;;;;;;;;;;;;;;4971743;28;20562;-77
2022/09/02 06:07:35;;;;;;;;;;;;;;;;;;4973400;28;19936;-77
2022/09/02 06:10:00;;;;;;;;;;;;;;;;;;4956307;28;20418;-77
2022/09/02 06:12:29;;;;;;;;;;;;;;;;;;4972005;28;19922;-76
2022/09/02 06:14:55;;;;;;;;;;;;;;;;;;4971782;28;19922;-76
2022/09/02 06:17:21;;;;;;;;;;;;;;;;;;4971912;28;19921;-76
2022/09/02 06:19:49;;;;;;;;;;;;;;;;;;4971898;28;20399;-77
2022/09/02 06:22:14;;;;;;;;;;;;;;;;;;4972006;28;19953;-76
2022/09/02 06:24:41;;;;;;;;;;;;;;;;;;4955659;28;19946;-76
2022/09/02 06:27:11;;;;;;;;;;;;;;;;;;4971921;28;19915;-76
2022/09/02 06:29:39;;;;;;;;;;;;;;;;;;4971710;28;19965;-76
2022/09/02 06:32:07;;;;;;;;;;;;;;;;;;4971969;28;19949;-76
2022/09/02 06:34:34;;;;;;;;;;;;;;;;;;4971753;28;19969;-76
2022/09/02 06:36:59;;;;;;;;;;;;;;;;;;4956424;28;19921;-76
2022/09/02 06:39:25;;;;;;;;;;;;;;;;;;4971961;28;19914;-77
2022/09/02 06:41:52;;;;;;;;;;;;;;;;;;4972118;28;19929;-76
2022/09/02 06:44:20;;;;;;;;;;;;;;;;;;4973087;28;19921;-77
2022/09/02 06:46:46;;;;;;;;;;;;;;;;;;4956293;28;19918;-76
2022/09/02 06:49:15;;;;;;;;;;;;;;;;;;4971936;28;19921;-76
2022/09/02 06:51:40;;;;;;;;;;;;;;;;;;4971694;28;19918;-77
2022/09/02 06:54:05;;;;;;;;;;;;;;;;;;4971493;28;19914;-76
2022/09/02 06:56:33;;;;;;;;;;;;;;;;;;4975266;28;20010;-76
2022/09/02 06:58:59;;;;;;;;;;;;;;;;;;4975648;28;20065;-76
2022/09/02 07:01:39;;;;;;;;;;;;;;;;;;4975354;28;20357;-76
2022/09/02 07:06:50;;;;;;;;;;;;;;;;;;4975538;28;19921;-75
2022/09/02 07:09:16;;;;;;;;;;;;;;;;;;4975535;28;19946;-75
2022/09/02 07:11:43;;;;;;;;;;;;;;;;;;4974808;28;19972;-76
2022/09/02 07:14:09;;;;;;;;;;;;;;;;;;4974521;28;19954;-76
2022/09/02 07:16:35;;;;;;;;;;;;;;;;;;4976094;28;20359;-77
2022/09/02 07:19:01;;;;;;;;;;;;;;;;;;4975006;28;19920;-77
2022/09/02 07:21:30;;;;;;;;;;;;;;;;;;4974881;28;20408;-76
2022/09/02 07:23:55;;;;;;;;;;;;;;;;;;4975024;28;20012;-76
2022/09/02 07:26:20;;;;;;;;;;;;;;;;;;4975151;28;20016;-77
2022/09/02 07:28:47;;;;;;;;;;;;;;;;;;4959053;28;19914;-76
2022/09/02 07:31:13;;;;;;;;;;;;;;;;;;4959184;28;19914;-77
2022/09/02 07:33:38;;;;;;;;;;;;;;;;;;4974714;28;19914;-76
2022/09/02 07:36:04;;;;;;;;;;;;;;;;;;4974965;28;19988;-77
2022/09/02 07:38:30;;;;;;;;;;;;;;;;;;4975342;28;20444;-75
2022/09/02 07:40:55;;;;;;;;;;;;;;;;;;4974850;28;19960;-75
2022/09/02 07:43:21;;;;;;;;;;;;;;;;;;4974560;28;19934;-76
2022/09/02 07:45:46;;;;;;;;;;;;;;;;;;4975027;28;20068;-76
2022/09/02 07:48:14;;;;;;;;;;;;;;;;;;4958631;28;19914;-75
2022/09/02 07:50:40;;;;;;;;;;;;;;;;;;4958397;28;20374;-76
2022/09/02 07:53:12;;;;;;;;;;;;;;;;;;4974653;28;19920;-76
2022/09/02 07:55:40;;;;;;;;;;;;;;;;;;4958800;28;19914;-76
2022/09/02 07:58:05;;;;;;;;;;;;;;;;;;4958501;28;20394;-76
2022/09/02 08:00:31;;;;;;;;;;;;;;;;;;4974495;28;19956;-75
2022/09/02 08:03:02;;;;;;;;;;;;;;;;;;4974228;28;20021;-75
2022/09/02 08:05:33;;;;;;;;;;;;;;;;;;4974459;28;19914;-76
2022/09/02 08:07:59;;;;;;;;;;;;;;;;;;4974913;28;19914;-76
2022/09/02 08:10:26;;;;;;;;;;;;;;;;;;4975680;28;19910;-76
2022/09/02 08:12:51;;;;;;;;;;;;;;;;;;4975212;28;19914;-77
2022/09/02 08:15:18;;;;;;;;;;;;;;;;;;4975526;28;19969;-75
2022/09/02 08:17:44;;;;;;;;;;;;;;;;;;4974221;28;20005;-76
2022/09/02 08:20:10;;;;;;;;;;;;;;;;;;4975263;28;20389;-76
2022/09/02 08:22:36;;;;;;;;;;;;;;;;;;4958032;28;20005;-75
2022/09/02 08:25:01;;;;;;;;;;;;;;;;;;4974044;28;19999;-74
2022/09/02 08:27:27;;;;;;;;;;;;;;;;;;4990173;28;19914;-76
2022/09/02 08:29:52;;;;;;;;;;;;;;;;;;4975155;28;19921;-76
2022/09/02 08:32:17;;;;;;;;;;;;;;;;;;4975066;28;19914;-76
2022/09/02 08:34:43;;;;;;;;;;;;;;;;;;4974469;28;19938;-75
2022/09/02 08:37:08;;;;;;;;;;;;;;;;;;4975197;28;19956;-76
2022/09/02 08:39:35;;;;;;;;;;;;;;;;;;4991058;28;19914;-77
2022/09/02 08:42:00;;;;;;;;;;;;;;;;;;4975164;28;19918;-76
2022/09/02 08:44:27;;;;;;;;;;;;;;;;;;4957885;28;19918;-76
2022/09/02 08:46:52;;;;;;;;;;;;;;;;;;4973533;28;19914;-77
2022/09/02 08:49:18;;;;;;;;;;;;;;;;;;4989465;28;20005;-76
2022/09/02 08:51:47;;;;;;;;;;;;;;;;;;4972926;28;19922;-77
2022/09/02 08:54:12;;;;;;;;;;;;;;;;;;4974883;28;20009;-77
2022/09/02 08:56:37;;;;;;;;;;;;;;;;;;4990074;28;19988;-76
2022/09/02 08:59:03;;;;;;;;;;;;;;;;;;4973845;28;20099;-76
2022/09/02 09:01:29;;;;;;;;;;;;;;;;;;4973216;28;19922;-77
2022/09/02 09:03:55;;;;;;;;;;;;;;;;;;4974113;28;19914;-77
2022/09/02 09:06:20;;;;;;;;;;;;;;;;;;4973380;28;19921;-77
2022/09/02 09:08:46;;;;;;;;;;;;;;;;;;4972918;28;19914;-77
2022/09/02 09:11:11;;;;;;;;;;;;;;;;;;4974394;28;19921;-74
2022/09/02 09:13:36;;;;;;;;;;;;;;;;;;4974394;28;19997;-76
2022/09/02 09:16:02;;;;;;;;;;;;;;;;;;4972926;28;19977;-77
2022/09/02 09:18:27;;;;;;;;;;;;;;;;;;4956186;28;19914;-77
2022/09/02 09:20:53;;;;;;;;;;;;;;;;;;4973936;28;19965;-77
2022/09/02 09:23:18;;;;;;;;;;;;;;;;;;4974288;28;19918;-77
2022/09/02 09:25:43;;;;;;;;;;;;;;;;;;4974350;28;19914;-76
2022/09/02 09:28:09;;;;;;;;;;;;;;;;;;4973260;28;19914;-76
2022/09/02 09:30:34;;;;;;;;;;;;;;;;;;4990052;28;19937;-76
2022/09/02 09:33:00;;;;;;;;;;;;;;;;;;4974435;28;20442;-77
2022/09/02 09:35:25;;;;;;;;;;;;;;;;;;4989267;28;19914;-76
2022/09/02 09:37:51;;;;;;;;;;;;;;;;;;4989176;28;19921;-76
2022/09/02 09:40:16;;;;;;;;;;;;;;;;;;4974322;28;19918;-77
2022/09/02 09:42:41;;;;;;;;;;;;;;;;;;4973586;28;19918;-76
2022/09/02 09:45:07;;;;;;;;;;;;;;;;;;4973880;28;19914;-77
2022/09/02 09:47:32;;;;;;;;;;;;;;;;;;4974594;28;19914;-76
2022/09/02 09:49:58;;;;;;;;;;;;;;;;;;4972378;28;19914;-75
2022/09/02 09:52:23;;;;;;;;;;;;;;;;;;4972682;28;19925;-76
2022/09/02 09:54:48;;;;;;;;;;;;;;;;;;4972287;28;19914;-76
2022/09/02 09:57:14;;;;;;;;;;;;;;;;;;4973352;28;19914;-77
2022/09/02 09:59:40;;;;;;;;;;;;;;;;;;4971643;28;20339;-76
2022/09/02 10:02:05;;;;;;;;;;;;;;;;;;4973336;28;20009;-76
2022/09/02 10:04:30;;;;;;;;;;;;;;;;;;4971438;28;19917;-76
2022/09/02 10:06:56;;;;;;;;;;;;;;;;;;4971930;28;19918;-77
2022/09/02 10:09:21;;;;;;;;;;;;;;;;;;4971931;28;19914;-76
2022/09/02 10:11:47;;;;;;;;;;;;;;;;;;4972032;28;19918;-75
2022/09/02 10:14:12;;;;;;;;;;;;;;;;;;4988089;28;19918;-76
2022/09/02 10:16:38;;;;;;;;;;;;;;;;;;4973302;28;19919;-75
2022/09/02 10:19:03;;;;;;;;;;;;;;;;;;4988581;28;20370;-77
2022/09/02 10:21:29;;;;;;;;;;;;;;;;;;4972317;28;19961;-77
2022/09/02 10:23:54;;;;;;;;;;;;;;;;;;4973314;28;20372;-76
2022/09/02 10:26:20;;;;;;;;;;;;;;;;;;4973651;28;20397;-76
2022/09/02 10:28:45;;;;;;;;;;;;;;;;;;4972385;28;19914;-77
2022/09/02 10:31:11;;;;;;;;;;;;;;;;;;4975335;28;20005;-78
2022/09/02 10:33:36;;;;;;;;;;;;;;;;;;4976095;28;19918;-77
2022/09/02 10:36:02;;;;;;;;;;;;;;;;;;4976316;28;19910;-77
2022/09/02 10:38:28;;;;;;;;;;;;;;;;;;4976449;28;19976;-74
2022/09/02 10:40:53;;;;;;;;;;;;;;;;;;4961183;28;19914;-77
2022/09/02 10:43:19;;;;;;;;;;;;;;;;;;4976195;28;19918;-77
2022/09/02 10:45:45;;;;;;;;;;;;;;;;;;4993521;28;20048;-77
2022/09/02 10:48:11;;;;;;;;;;;;;;;;;;4976350;28;20004;-77
2022/09/02 10:50:37;;;;;;;;;;;;;;;;;;4959800;28;20420;-77
2022/09/02 10:53:03;;;;;;;;;;;;;;;;;;4991654;28;19914;-78
2022/09/02 10:55:28;;;;;;;;;;;;;;;;;;4976021;28;19914;-76
2022/09/02 10:57:53;;;;;;;;;;;;;;;;;;4959551;28;19922;-75
2022/09/02 11:00:20;;;;;;;;;;;;;;;;;;4975697;28;19914;-77
2022/09/02 11:02:45;;;;;;;;;;;;;;;;;;4976478;28;19924;-83
2022/09/02 11:05:16;;;;;;;;;;;;;;;;;;4983863;28;20049;-86
2022/09/02 11:07:42;;;;;;;;;;;;;;;;;;4963569;28;19921;-82
2022/09/02 11:10:08;;;;;;;;;;;;;;;;;;4977546;28;19914;-82
2022/09/02 11:12:33;;;;;;;;;;;;;;;;;;4987173;28;19921;-79
2022/09/02 11:14:59;;;;;;;;;;;;;;;;;;4984493;28;20116;-80
2022/09/02 11:17:25;;;;;;;;;;;;;;;;;;4998220;28;20288;-81
2022/09/02 11:19:50;;;;;;;;;;;;;;;;;;5009130;28;19914;-80
2022/09/02 11:22:15;;;;;;;;;;;;;;;;;;4996357;28;19972;-81
2022/09/02 11:24:41;;;;;;;;;;;;;;;;;;4998541;28;20309;-80
2022/09/02 11:27:07;;;;;;;;;;;;;;;;;;5004782;28;19929;-80
2022/09/02 11:29:32;;;;;;;;;;;;;;;;;;4995037;28;19910;-80
2022/09/02 11:31:57;;;;;;;;;;;;;;;;;;5004822;28;19918;-83
2022/09/02 11:34:23;;;;;;;;;;;;;;;;;;5011371;28;19913;-80
2022/09/02 11:36:48;;;;;;;;;;;;;;;;;;5002375;28;19914;-81
2022/09/02 11:39:13;;;;;;;;;;;;;;;;;;4995339;28;19952;-82
2022/09/02 11:41:39;;;;;;;;;;;;;;;;;;4977467;28;19924;-82
2022/09/02 11:44:04;;;;;;;;;;;;;;;;;;4998812;28;19996;-80
2022/09/02 11:46:30;;;;;;;;;;;;;;;;;;4995267;28;19935;-81
2022/09/02 11:48:55;;;;;;;;;;;;;;;;;;5002854;28;19910;-80
2022/09/02 11:51:20;;;;;;;;;;;;;;;;;;4978820;28;19924;-81
2022/09/02 11:53:46;;;;;;;;;;;;;;;;;;4981492;28;19990;-81
2022/09/02 11:56:11;;;;;;;;;;;;;;;;;;4999140;28;19961;-82
2022/09/02 11:58:37;;;;;;;;;;;;;;;;;;5002498;28;19917;-91
2022/09/02 12:01:02;;;;;;;;;;;;;;;;;;4995449;28;19961;-90
2022/09/02 12:03:31;;;;;;;;;;;;;;;;;;5016435;28;19905;-91
2022/09/02 12:06:00;;;;;;;;;;;;;;;;;;5017838;28;19918;-91
2022/09/02 12:08:25;;;;;;;;;;;;;;;;;;4985504;28;19989;-92
2022/09/02 12:10:51;;;;;;;;;;;;;;;;;;5030554;28;19949;-92
2022/09/02 12:13:17;;;;;;;;;;;;;;;;;;5017919;28;19962;-90
2022/09/02 12:15:44;;;;;;;;;;;;;;;;;;5016845;28;20008;-92
2022/09/02 12:18:09;;;;;;;;;;;;;;;;;;5002153;28;19924;-90
2022/09/02 12:20:34;;;;;;;;;;;;;;;;;;5021971;28;20328;-93
2022/09/02 12:23:00;;;;;;;;;;;;;;;;;;5018044;28;19930;-91
2022/09/02 12:25:31;;;;;;;;;;;;;;;;;;4994551;28;19921;-86
2022/09/02 12:27:58;;;;;;;;;;;;;;;;;;4996468;28;19918;-85
2022/09/02 12:30:23;;;;;;;;;;;;;;;;;;4973860;28;19914;-78
2022/09/02 12:32:48;;;;;;;;;;;;;;;;;;4974440;28;19914;-86
2022/09/02 12:35:15;;;;;;;;;;;;;;;;;;4958413;28;20009;-80
2022/09/02 12:37:41;;;;;;;;;;;;;;;;;;4976187;28;19917;-78
2022/09/02 12:40:07;;;;;;;;;;;;;;;;;;4974846;28;19918;-79
2022/09/02 12:42:32;;;;;;;;;;;;;;;;;;4990388;28;19941;-79
2022/09/02 12:44:58;;;;;;;;;;;;;;;;;;4989151;28;19922;-78
2022/09/02 12:47:24;;;;;;;;;;;;;;;;;;4974393;28;19980;-79
2022/09/02 12:49:49;;;;;;;;;;;;;;;;;;4989835;28;19921;-79
2022/09/02 12:52:15;;;;;;;;;;;;;;;;;;4973734;28;19910;-80
2022/09/02 12:54:40;;;;;;;;;;;;;;;;;;4974053;28;20278;-79
2022/09/02 12:57:06;;;;;;;;;;;;;;;;;;4973510;28;19914;-77
2022/09/02 12:59:31;;;;;;;;;;;;;;;;;;4988443;28;19914;-79
2022/09/02 13:01:56;;;;;;;;;;;;;;;;;;4976543;28;20292;-79
2022/09/02 13:04:22;;;;;;;;;;;;;;;;;;4993298;28;19914;-79
2022/09/02 13:06:47;;;;;;;;;;;;;;;;;;4992724;28;19914;-80
2022/09/02 13:09:12;;;;;;;;;;;;;;;;;;4992837;28;19918;-79
2022/09/02 13:11:38;;;;;;;;;;;;;;;;;;4993644;28;19946;-79
2022/09/02 13:14:03;;;;;;;;;;;;;;;;;;4992555;28;19925;-77
2022/09/02 13:16:29;;;;;;;;;;;;;;;;;;4989939;28;19988;-78
2022/09/02 13:18:54;;;;;;;;;;;;;;;;;;4975932;28;19914;-79
2022/09/02 13:21:19;;;;;;;;;;;;;;;;;;4992102;28;19914;-78
2022/09/02 13:23:45;;;;;;;;;;;;;;;;;;4993438;28;19917;-79
2022/09/02 13:26:10;;;;;;;;;;;;;;;;;;4993501;28;19920;-79
2022/09/02 13:28:36;;;;;;;;;;;;;;;;;;4992597;28;20532;-79
2022/09/02 13:31:01;;;;;;;;;;;;;;;;;;4991951;28;20298;-78
2022/09/02 13:33:27;;;;;;;;;;;;;;;;;;4992225;28;19920;-80
2022/09/02 13:35:52;;;;;;;;;;;;;;;;;;4993194;28;19910;-79
2022/09/02 13:38:18;;;;;;;;;;;;;;;;;;4993685;28;19920;-79
2022/09/02 13:40:43;;;;;;;;;;;;;;;;;;4991838;28;20293;-81
2022/09/02 13:43:08;;;;;;;;;;;;;;;;;;4991481;28;19971;-79
2022/09/02 13:45:34;;;;;;;;;;;;;;;;;;4993253;28;19921;-79
2022/09/02 13:47:59;;;;;;;;;;;;;;;;;;4986038;28;20354;-79
2022/09/02 13:50:25;;;;;;;;;;;;;;;;;;4998350;28;19914;-79
2022/09/02 13:52:50;;;;;;;;;;;;;;;;;;4972633;28;19914;-80
2022/09/02 13:55:16;;;;;;;;;;;;;;;;;;4992850;28;19920;-79
2022/09/02 13:57:41;;;;;;;;;;;;;;;;;;4992337;28;19913;-77
2022/09/02 14:00:07;;;;;;;;;;;;;;;;;;4991571;28;20000;-78
2022/09/02 14:02:37;;;;;;;;;;;;;;;;;;4991794;28;19921;-80
2022/09/02 14:05:03;;;;;;;;;;;;;;;;;;4991909;28;19984;-79
2022/09/02 14:07:28;;;;;;;;;;;;;;;;;;4992868;28;19914;-79
2022/09/02 14:09:54;;;;;;;;;;;;;;;;;;4975911;28;19941;-78
2022/09/02 14:12:19;;;;;;;;;;;;;;;;;;4993241;28;19914;-77
2022/09/02 14:14:45;;;;;;;;;;;;;;;;;;4991244;28;19917;-80
2022/09/02 14:17:10;;;;;;;;;;;;;;;;;;4992919;28;19914;-80
2022/09/02 14:19:35;;;;;;;;;;;;;;;;;;4993334;28;20371;-82
2022/09/02 14:22:01;;;;;;;;;;;;;;;;;;4994033;28;20282;-79
2022/09/02 14:24:26;;;;;;;;;;;;;;;;;;4993338;28;19918;-78
2022/09/02 14:26:52;;;;;;;;;;;;;;;;;;4991942;28;20301;-79
2022/09/02 14:29:17;;;;;;;;;;;;;;;;;;4991796;28;19914;-78
2022/09/02 14:31:42;;;;;;;;;;;;;;;;;;4991870;28;19917;-78
2022/09/02 14:34:08;;;;;;;;;;;;;;;;;;4993932;28;19918;-79
2022/09/02 14:36:34;;;;;;;;;;;;;;;;;;4977423;28;19914;-79
2022/09/02 14:38:59;;;;;;;;;;;;;;;;;;4991988;28;20265;-79
2022/09/02 14:41:24;;;;;;;;;;;;;;;;;;4997161;28;19957;-80
2022/09/02 14:43:50;;;;;;;;;;;;;;;;;;4999597;28;19917;-79
2022/09/02 14:46:15;;;;;;;;;;;;;;;;;;5001764;28;19986;-81
2022/09/02 14:48:41;;;;;;;;;;;;;;;;;;4999116;28;19978;-76
2022/09/02 14:51:06;;;;;;;;;;;;;;;;;;4981696;28;19922;-77
2022/09/02 14:53:32;;;;;;;;;;;;;;;;;;4981343;28;19921;-81
2022/09/02 14:55:57;;;;;;;;;;;;;;;;;;4976294;28;19925;-80
2022/09/02 14:58:22;;;;;;;;;;;;;;;;;;4973674;28;19910;-78
2022/09/02 15:00:50;;;;;;;;;;;;;;;;;;4973803;28;19921;-79
2022/09/02 15:03:16;;;;;;;;;;;;;;;;;;4973007;28;20377;-79
2022/09/02 15:05:41;;;;;;;;;;;;;;;;;;4988110;28;20017;-80
2022/09/02 15:08:07;;;;;;;;;;;;;;;;;;4973053;28;19918;-78
2022/09/02 15:10:33;;;;;;;;;;;;;;;;;;4972251;28;19992;-80
2022/09/02 15:12:59;;;;;;;;;;;;;;;;;;4987844;28;19918;-81
2022/09/02 15:15:26;;;;;;;;;;;;;;;;;;4972135;28;19925;-82
2022/09/02 15:17:51;;;;;;;;;;;;;;;;;;4975451;28;19914;-79
2022/09/02 15:20:17;;;;;;;;;;;;;;;;;;4975684;28;19992;-78
2022/09/02 15:22:42;;;;;;;;;;;;;;;;;;4991224;28;19918;-78
2022/09/02 15:25:08;;;;;;;;;;;;;;;;;;4991298;28;19918;-80
2022/09/02 15:27:33;;;;;;;;;;;;;;;;;;4959057;28;19921;-79
2022/09/02 15:29:58;;;;;;;;;;;;;;;;;;4991550;28;20301;-79
2022/09/02 15:32:40;;;;;;;;;;;;;;;;;;4976257;28;19945;-80
2022/09/02 15:35:05;;;;;;;;;;;;;;;;;;4976266;28;19972;-79
2022/09/02 15:37:33;;;;;;;;;;;;;;;;;;4977177;28;20013;-77
2022/09/02 15:39:59;;;;;;;;;;;;;;;;;;4976081;28;19914;-79
2022/09/02 15:42:25;;;;;;;;;;;;;;;;;;4976148;28;19925;-77
2022/09/02 15:44:50;;;;;;;;;;;;;;;;;;4975044;28;20044;-79
2022/09/02 15:47:15;;;;;;;;;;;;;;;;;;4976206;28;20000;-77
2022/09/02 15:49:41;;;;;;;;;;;;;;;;;;4975849;28;19914;-78
2022/09/02 15:52:06;;;;;;;;;;;;;;;;;;4975857;28;20270;-79
2022/09/02 15:54:31;;;;;;;;;;;;;;;;;;4990979;28;19921;-78
2022/09/02 15:56:57;;;;;;;;;;;;;;;;;;4958541;28;20354;-79
2022/09/02 15:59:22;;;;;;;;;;;;;;;;;;4974560;28;19914;-76
2022/09/02 16:01:48;;;;;;;;;;;;;;;;;;4975972;28;20400;-79
2022/09/02 16:04:13;;;;;;;;;;;;;;;;;;4975690;28;19914;-78
2022/09/02 16:06:39;;;;;;;;;;;;;;;;;;4976513;28;19922;-80
2022/09/02 16:09:04;;;;;;;;;;;;;;;;;;4958657;28;20010;-79
2022/09/02 16:11:29;;;;;;;;;;;;;;;;;;4976243;28;19921;-80
2022/09/02 16:13:55;;;;;;;;;;;;;;;;;;4975775;28;19944;-80
2022/09/02 16:16:21;;;;;;;;;;;;;;;;;;4974586;28;19914;-78
2022/09/02 16:18:46;;;;;;;;;;;;;;;;;;4975842;28;19922;-79
2022/09/02 16:21:12;;;;;;;;;;;;;;;;;;4978085;28;19921;-79
2022/09/02 16:23:37;;;;;;;;;;;;;;;;;;4975016;28;19918;-77
2022/09/02 16:26:03;;;;;;;;;;;;;;;;;;4995157;28;19917;-78
2022/09/02 16:28:28;;;;;;;;;;;;;;;;;;4993198;28;19914;-80
2022/09/02 16:30:56;;;;;;;;;;;;;;;;;;4996357;28;19953;-79
2022/09/02 16:33:22;;;;;;;;;;;;;;;;;;4976592;28;19914;-81
2022/09/02 16:35:47;;;;;;;;;;;;;;;;;;4988692;28;20453;-80
2022/09/02 16:38:14;;;;;;;;;;;;;;;;;;4993982;28;19914;-79
2022/09/02 16:40:40;;;;;;;;;;;;;;;;;;4988616;28;19973;-80